Time;durP1;ratioP1;P1;durP2;ratioP2;P2;SDS_P1;SDS_P2;PMS_P1;PMS_P2;Temp;Humidity;BMP_temperature;BMP_pressure;BME280_temperature;BME280_humidity;BME280_pressure;Samples;Min_cycle;Max_cycle;Signal;HPM_P1;HPM_P2
2021/05/05 00:00:28;;;;;;;11.25;4.53;;;20.40;68.80;;;;;;5069382;28;20533;-69
2021/05/05 00:02:55;;;;;;;8.15;4.95;;;20.40;68.70;;;;;;5081024;28;20084;-69
2021/05/05 00:05:21;;;;;;;11.63;4.93;;;20.40;68.70;;;;;;5081203;28;20404;-69
2021/05/05 00:07:48;;;;;;;8.50;5.40;;;20.40;68.80;;;;;;5070359;28;20030;-69
2021/05/05 00:10:16;;;;;;;10.35;4.68;;;20.40;68.60;;;;;;5083616;28;20103;-69
2021/05/05 00:12:44;;;;;;;11.55;4.80;;;20.40;68.50;;;;;;5086100;28;20111;-69
2021/05/05 00:15:21;;;;;;;13.73;4.57;;;20.40;68.50;;;;;;5092555;28;20024;-69
2021/05/05 00:17:47;;;;;;;10.85;3.88;;;20.30;68.30;;;;;;5091514;28;20420;-69
2021/05/05 00:20:15;;;;;;;8.23;4.30;;;20.30;68.20;;;;;;5091740;28;20444;-69
2021/05/05 00:22:42;;;;;;;10.45;3.47;;;20.30;68.10;;;;;;5090624;28;20058;-69
2021/05/05 00:25:09;;;;;;;9.55;3.72;;;20.30;68.00;;;;;;5092656;28;20055;-69
2021/05/05 00:27:36;;;;;;;7.03;2.65;;;20.30;68.00;;;;;;5091486;28;20345;-69
2021/05/05 00:30:06;;;;;;;7.65;3.35;;;20.30;67.90;;;;;;5092214;28;20069;-69
2021/05/05 00:32:33;;;;;;;6.90;2.72;;;20.30;67.90;;;;;;5089993;28;20054;-69
2021/05/05 00:34:59;;;;;;;9.25;2.80;;;20.20;67.70;;;;;;5090621;28;20483;-69
2021/05/05 00:37:26;;;;;;;9.90;2.78;;;20.20;67.70;;;;;;5092379;28;20475;-69
2021/05/05 00:39:53;;;;;;;12.60;3.20;;;20.20;67.70;;;;;;5090466;28;20103;-70
2021/05/05 00:42:21;;;;;;;8.00;2.05;;;20.20;67.60;;;;;;5091925;28;20135;-69
2021/05/05 00:44:47;;;;;;;14.23;3.72;;;20.20;67.50;;;;;;5083399;28;20034;-69
2021/05/05 00:47:16;;;;;;;8.10;3.05;;;20.20;67.40;;;;;;5090955;28;20024;-69
2021/05/05 00:49:42;;;;;;;6.82;2.50;;;20.20;67.20;;;;;;5090059;28;20536;-69
2021/05/05 00:52:09;;;;;;;8.95;2.35;;;20.20;67.10;;;;;;5072704;28;20069;-69
2021/05/05 00:54:35;;;;;;;9.25;3.85;;;20.20;67.00;;;;;;5089120;28;20020;-69
2021/05/05 00:57:02;;;;;;;6.43;2.38;;;20.20;67.10;;;;;;5088497;28;20103;-69
2021/05/05 00:59:29;;;;;;;12.75;3.00;;;20.10;66.90;;;;;;5091564;28;20032;-69
2021/05/05 01:01:55;;;;;;;6.22;1.98;;;20.10;66.90;;;;;;5088194;28;20111;-69
2021/05/05 01:04:22;;;;;;;11.13;2.40;;;20.10;66.70;;;;;;5091067;28;20544;-69
2021/05/05 01:06:48;;;;;;;7.40;2.05;;;20.10;66.80;;;;;;5091184;28;20052;-69
2021/05/05 01:09:15;;;;;;;7.82;2.88;;;20.10;66.80;;;;;;5089599;28;20008;-69
2021/05/05 01:11:43;;;;;;;8.80;2.33;;;20.10;66.80;;;;;;5091529;28;20505;-69
2021/05/05 01:14:10;;;;;;;8.40;2.45;;;20.10;67.00;;;;;;5089319;28;20016;-69
2021/05/05 01:16:37;;;;;;;9.23;2.78;;;20.10;67.30;;;;;;5091317;28;20020;-69
2021/05/05 01:19:04;;;;;;;8.95;2.53;;;20.10;67.60;;;;;;5088816;28;20074;-69
2021/05/05 01:21:31;;;;;;;12.57;3.65;;;20.10;67.80;;;;;;5091347;28;20839;-69
2021/05/05 01:23:57;;;;;;;9.60;3.92;;;20.10;68.00;;;;;;5088513;28;20012;-69
2021/05/05 01:26:24;;;;;;;12.93;3.95;;;20.10;68.10;;;;;;5090504;28;20425;-69
2021/05/05 01:28:51;;;;;;;13.50;3.97;;;20.10;68.10;;;;;;5090861;28;20020;-69
2021/05/05 01:31:17;;;;;;;9.57;3.40;;;20.10;68.10;;;;;;5088688;28;20039;-69
2021/05/05 01:33:44;;;;;;;13.55;3.92;;;20.10;68.10;;;;;;5091028;28;20065;-69
2021/05/05 01:36:15;;;;;;;8.25;3.10;;;20.10;68.10;;;;;;5089646;28;20054;-69
2021/05/05 01:38:41;;;;;;;9.25;3.15;;;20.10;68.10;;;;;;5090929;28;20107;-69
2021/05/05 01:41:08;;;;;;;10.82;2.75;;;20.10;68.10;;;;;;5076726;28;20415;-69
2021/05/05 01:43:34;;;;;;;9.57;3.17;;;20.10;68.00;;;;;;5090757;28;20076;-69
2021/05/05 01:46:02;;;;;;;11.15;2.70;;;20.10;68.00;;;;;;5090500;28;20012;-69
2021/05/05 01:48:29;;;;;;;9.77;3.97;;;20.00;67.90;;;;;;5090266;28;20374;-69
2021/05/05 01:50:55;;;;;;;11.90;2.78;;;20.10;68.00;;;;;;5090695;28;20107;-68
2021/05/05 01:53:22;;;;;;;6.45;2.30;;;20.00;67.90;;;;;;5086651;28;20517;-69
2021/05/05 01:55:48;;;;;;;7.38;3.03;;;20.00;67.90;;;;;;5089419;28;20027;-69
2021/05/05 01:58:15;;;;;;;6.78;2.38;;;20.00;67.90;;;;;;5089687;28;20020;-69
2021/05/05 02:00:42;;;;;;;7.32;2.42;;;20.00;67.90;;;;;;5090593;28;20032;-69
2021/05/05 02:03:09;;;;;;;9.15;2.63;;;20.00;68.00;;;;;;5090284;28;20032;-69
2021/05/05 02:05:36;;;;;;;11.20;3.13;;;20.00;68.20;;;;;;5089963;28;20360;-69
2021/05/05 02:08:03;;;;;;;7.38;3.22;;;20.00;68.30;;;;;;5090463;28;20012;-69
2021/05/05 02:10:30;;;;;;;5.78;1.85;;;20.00;68.40;;;;;;5089188;28;20047;-69
2021/05/05 02:12:57;;;;;;;7.68;2.72;;;20.00;68.50;;;;;;5090392;28;20016;-69
2021/05/05 02:15:23;;;;;;;8.15;2.33;;;20.00;68.70;;;;;;5089065;28;20013;-69
2021/05/05 02:17:51;;;;;;;5.05;1.60;;;20.00;68.80;;;;;;5085694;28;20115;-69
2021/05/05 02:20:21;;;;;;;7.35;3.53;;;20.00;68.90;;;;;;5089428;28;20032;-69
2021/05/05 02:22:49;;;;;;;7.70;2.30;;;20.00;69.00;;;;;;5089773;28;20391;-69
2021/05/05 02:25:16;;;;;;;8.18;2.13;;;20.00;69.00;;;;;;5089264;28;20424;-69
2021/05/05 02:27:44;;;;;;;5.38;2.40;;;20.00;69.00;;;;;;5089049;28;20095;-69
2021/05/05 02:30:13;;;;;;;4.25;2.25;;;20.00;69.00;;;;;;5089815;28;20012;-69
2021/05/05 02:32:41;;;;;;;5.10;2.72;;;20.00;69.00;;;;;;5088833;28;20024;-69
2021/05/05 02:35:09;;;;;;;6.22;2.17;;;20.00;68.90;;;;;;5089819;28;20408;-69
2021/05/05 02:37:37;;;;;;;6.85;2.25;;;20.00;68.90;;;;;;5086106;28;20016;-69
2021/05/05 02:40:06;;;;;;;6.43;2.65;;;20.00;68.90;;;;;;5088231;28;20419;-69
2021/05/05 02:42:34;;;;;;;3.63;2.08;;;19.90;68.90;;;;;;5086632;28;20012;-69
2021/05/05 02:45:00;;;;;;;4.18;1.83;;;20.00;69.00;;;;;;5087737;28;20371;-69
2021/05/05 02:47:27;;;;;;;9.95;2.35;;;19.90;69.00;;;;;;5089544;28;20039;-69
2021/05/05 02:49:53;;;;;;;8.95;2.78;;;19.90;69.00;;;;;;5085824;28;20391;-69
2021/05/05 02:52:20;;;;;;;11.00;3.03;;;19.90;69.00;;;;;;5089351;28;20024;-69
2021/05/05 02:54:47;;;;;;;15.65;3.85;;;19.90;69.10;;;;;;5089023;28;20012;-69
2021/05/05 02:57:13;;;;;;;3.58;1.80;;;19.90;69.10;;;;;;5089129;28;20475;-69
2021/05/05 02:59:40;;;;;;;10.70;3.25;;;19.90;69.20;;;;;;5089047;28;20028;-69
2021/05/05 03:02:08;;;;;;;6.00;2.28;;;19.90;69.30;;;;;;5088300;28;20031;-70
2021/05/05 03:04:34;;;;;;;7.13;2.38;;;19.90;69.30;;;;;;5086695;28;20027;-69
2021/05/05 03:07:01;;;;;;;8.85;3.67;;;19.90;69.40;;;;;;5088126;28;20019;-69
2021/05/05 03:09:28;;;;;;;11.90;2.78;;;19.90;69.40;;;;;;5086915;28;20019;-69
2021/05/05 03:11:58;;;;;;;6.32;2.47;;;19.90;69.50;;;;;;5084346;28;20020;-69
2021/05/05 03:14:26;;;;;;;8.57;2.58;;;19.90;69.40;;;;;;5087896;28;20020;-69
2021/05/05 03:16:56;;;;;;;9.77;2.83;;;19.90;69.50;;;;;;5088810;28;20027;-69
2021/05/05 03:19:24;;;;;;;15.18;4.55;;;19.90;69.40;;;;;;5086750;28;20024;-69
2021/05/05 03:21:50;;;;;;;8.00;2.45;;;19.90;69.40;;;;;;5089268;28;20087;-69
2021/05/05 03:24:17;;;;;;;6.38;2.60;;;19.90;69.40;;;;;;5087858;28;20020;-69
2021/05/05 03:26:44;;;;;;;10.40;3.63;;;19.90;69.40;;;;;;5089039;28;20098;-69
2021/05/05 03:29:10;;;;;;;7.82;2.53;;;19.90;69.40;;;;;;5087927;28;20024;-69
2021/05/05 03:31:37;;;;;;;5.25;3.15;;;19.90;69.50;;;;;;5088937;28;20787;-69
2021/05/05 03:34:05;;;;;;;6.95;3.45;;;19.90;69.50;;;;;;5088325;28;20131;-68
2021/05/05 03:36:32;;;;;;;4.38;3.03;;;19.90;69.50;;;;;;5088140;28;20011;-69
2021/05/05 03:39:00;;;;;;;9.30;2.70;;;19.90;69.50;;;;;;5087028;28;20016;-69
2021/05/05 03:41:29;;;;;;;4.85;2.33;;;19.90;69.50;;;;;;5087281;28;20475;-68
2021/05/05 03:43:56;;;;;;;8.73;3.00;;;19.90;69.50;;;;;;5088570;28;20383;-69
2021/05/05 03:46:22;;;;;;;6.20;2.40;;;19.90;69.50;;;;;;5087658;28;20487;-69
2021/05/05 03:48:49;;;;;;;4.22;2.35;;;19.90;70.20;;;;;;5088577;28;20024;-68
2021/05/05 03:51:16;;;;;;;5.93;3.92;;;19.90;70.30;;;;;;5087997;28;20008;-69
2021/05/05 03:53:42;;;;;;;14.63;9.23;;;19.90;69.70;;;;;;5087953;28;20008;-68
2021/05/05 03:56:09;;;;;;;21.88;15.27;;;19.90;69.70;;;;;;5088600;28;20071;-69
2021/05/05 03:58:35;;;;;;;19.23;13.55;;;19.90;69.70;;;;;;5085606;28;20103;-70
2021/05/05 04:01:02;;;;;;;14.27;10.88;;;19.90;69.70;;;;;;5077359;28;20097;-69
2021/05/05 04:03:29;;;;;;;12.07;8.15;;;19.90;69.70;;;;;;5086187;28;20020;-71
2021/05/05 04:05:55;;;;;;;10.88;6.43;;;19.90;69.80;;;;;;5085474;28;20069;-70
2021/05/05 04:08:22;;;;;;;9.20;4.63;;;19.90;69.80;;;;;;5086204;28;20020;-70
2021/05/05 04:10:48;;;;;;;7.43;3.45;;;19.90;69.80;;;;;;5087429;28;20016;-70
2021/05/05 04:13:15;;;;;;;7.10;4.00;;;19.90;69.80;;;;;;5087455;28;20099;-69
2021/05/05 04:15:41;;;;;;;8.43;3.30;;;19.90;69.90;;;;;;5081577;28;20054;-72
2021/05/05 04:18:08;;;;;;;5.47;3.25;;;19.90;69.90;;;;;;5080945;28;20082;-69
2021/05/05 04:20:35;;;;;;;6.93;3.40;;;19.90;69.90;;;;;;5084018;28;20028;-67
2021/05/05 04:23:01;;;;;;;11.68;8.00;;;19.90;69.90;;;;;;5077872;28;20059;-68
2021/05/05 04:25:28;;;;;;;9.20;7.32;;;19.90;70.00;;;;;;5081253;28;20039;-67
2021/05/05 04:27:55;;;;;;;15.52;7.32;;;19.90;70.00;;;;;;5081356;28;20089;-68
2021/05/05 04:30:22;;;;;;;10.77;6.13;;;19.90;70.00;;;;;;5074841;28;20551;-68
2021/05/05 04:32:51;;;;;;;13.55;4.80;;;19.90;70.00;;;;;;5077949;28;20036;-69
2021/05/05 04:35:19;;;;;;;6.90;4.93;;;19.90;70.00;;;;;;5080935;28;20031;-71
2021/05/05 04:37:46;;;;;;;6.70;3.70;;;19.90;70.00;;;;;;5078368;28;20085;-70
2021/05/05 04:40:13;;;;;;;10.05;3.20;;;19.90;69.90;;;;;;5078703;28;20093;-69
2021/05/05 04:42:40;;;;;;;12.82;3.90;;;19.90;69.90;;;;;;5076764;28;20025;-69
2021/05/05 04:45:08;;;;;;;5.68;2.85;;;19.90;69.80;;;;;;5078445;28;20099;-69
2021/05/05 04:47:36;;;;;;;10.68;2.75;;;19.90;69.80;;;;;;5080001;28;20367;-69
2021/05/05 04:50:10;;;;;;;5.63;3.05;;;19.90;69.90;;;;;;5077939;28;20589;-70
2021/05/05 04:52:37;;;;;;;6.93;2.33;;;19.90;69.90;;;;;;5080472;28;20024;-70
2021/05/05 04:55:06;;;;;;;6.95;2.70;;;19.90;70.00;;;;;;5081788;28;20024;-69
2021/05/05 04:57:33;;;;;;;7.32;2.30;;;19.90;69.90;;;;;;5082328;28;20103;-69
2021/05/05 04:59:59;;;;;;;7.25;2.65;;;19.90;69.90;;;;;;5079327;28;20055;-69
2021/05/05 05:02:26;;;;;;;7.97;3.10;;;19.90;70.00;;;;;;5083379;28;20047;-69
2021/05/05 05:04:52;;;;;;;9.32;3.50;;;19.90;70.00;;;;;;5077111;28;20386;-69
2021/05/05 05:07:19;;;;;;;8.43;2.50;;;19.80;69.90;;;;;;5082072;28;20020;-69
2021/05/05 05:09:46;;;;;;;4.55;2.65;;;19.80;70.00;;;;;;5084124;28;20020;-69
2021/05/05 05:12:12;;;;;;;9.15;2.58;;;19.80;70.00;;;;;;5081542;28;20489;-69
2021/05/05 05:14:39;;;;;;;6.63;3.13;;;19.80;70.00;;;;;;5082752;28;20114;-69
2021/05/05 05:17:05;;;;;;;9.77;3.13;;;19.80;70.00;;;;;;5082449;28;20029;-68
2021/05/05 05:19:32;;;;;;;5.68;3.13;;;19.80;69.90;;;;;;5081535;28;20493;-69
2021/05/05 05:22:00;;;;;;;5.93;2.30;;;19.80;69.90;;;;;;5080130;28;20166;-68
2021/05/05 05:24:28;;;;;;;6.75;2.38;;;19.80;69.90;;;;;;5077647;28;20025;-69
2021/05/05 05:26:55;;;;;;;10.15;2.88;;;19.80;69.90;;;;;;5076695;28;20013;-69
2021/05/05 05:29:21;;;;;;;5.20;2.60;;;19.80;69.80;;;;;;5079619;28;20024;-69
2021/05/05 05:31:48;;;;;;;5.75;2.55;;;19.80;69.80;;;;;;5078812;28;20170;-68
2021/05/05 05:34:18;;;;;;;6.65;2.08;;;19.80;69.80;;;;;;5078339;28;20020;-69
2021/05/05 05:36:45;;;;;;;9.20;2.65;;;19.80;69.70;;;;;;5077928;28;20420;-69
2021/05/05 05:39:11;;;;;;;11.43;2.63;;;19.80;70.30;;;;;;5076332;28;20123;-69
2021/05/05 05:41:38;;;;;;;4.35;2.45;;;19.80;69.60;;;;;;5081386;28;20038;-68
2021/05/05 05:44:05;;;;;;;4.97;3.00;;;19.70;69.40;;;;;;5077642;28;20024;-68
2021/05/05 05:46:31;;;;;;;7.22;2.50;;;19.70;69.40;;;;;;5080914;28;20361;-69
2021/05/05 05:48:58;;;;;;;11.15;3.45;;;19.70;69.40;;;;;;5083305;28;20028;-68
2021/05/05 05:51:25;;;;;;;4.60;2.42;;;19.70;69.40;;;;;;5078774;28;20017;-67
2021/05/05 05:53:51;;;;;;;5.88;2.45;;;19.60;69.40;;;;;;5086064;28;20025;-67
2021/05/05 05:56:17;;;;;;;7.35;2.88;;;19.60;69.40;;;;;;5083137;28;20032;-67
2021/05/05 05:58:44;;;;;;;7.93;3.63;;;19.60;69.40;;;;;;5081867;28;20299;-67
2021/05/05 06:01:10;;;;;;;6.63;3.05;;;19.60;69.50;;;;;;5079617;28;20024;-67
2021/05/05 06:03:38;;;;;;;7.18;2.85;;;19.60;69.60;;;;;;5080427;28;20020;-70
2021/05/05 06:06:04;;;;;;;8.88;3.45;;;19.60;69.60;;;;;;5082371;28;20031;-68
2021/05/05 06:08:33;;;;;;;11.60;2.88;;;19.60;69.70;;;;;;5079902;28;20112;-68
2021/05/05 06:11:00;;;;;;;10.25;3.45;;;19.60;69.70;;;;;;5079319;28;20016;-67
2021/05/05 06:13:26;;;;;;;11.40;3.85;;;19.60;69.80;;;;;;5080527;28;20016;-68
2021/05/05 06:15:53;;;;;;;11.10;3.47;;;19.60;69.80;;;;;;5080958;28;20109;-68
2021/05/05 06:18:20;;;;;;;11.98;4.40;;;19.60;70.00;;;;;;5080478;28;20019;-68
2021/05/05 06:20:46;;;;;;;11.45;4.90;;;19.60;69.90;;;;;;5074872;28;20392;-70
2021/05/05 06:23:13;;;;;;;10.90;4.00;;;19.60;70.00;;;;;;5079520;28;20363;-69
2021/05/05 06:25:39;;;;;;;10.43;3.45;;;19.60;70.00;;;;;;5078076;28;20032;-70
2021/05/05 06:28:06;;;;;;;7.80;3.05;;;19.60;70.00;;;;;;5080784;28;20371;-70
2021/05/05 06:30:32;;;;;;;9.88;3.08;;;19.60;70.80;;;;;;5081504;28;20481;-69
2021/05/05 06:32:58;;;;;;;13.57;3.20;;;19.60;70.20;;;;;;5081267;28;20374;-69
2021/05/05 06:35:25;;;;;;;6.30;2.92;;;19.70;70.30;;;;;;5078478;28;20016;-69
2021/05/05 06:37:51;;;;;;;15.48;2.90;;;19.70;70.40;;;;;;5081561;28;20454;-70
2021/05/05 06:40:19;;;;;;;7.07;2.42;;;19.70;70.40;;;;;;5080936;28;20487;-70
2021/05/05 06:42:46;;;;;;;12.30;2.75;;;19.70;70.30;;;;;;5078509;28;20035;-70
2021/05/05 06:45:13;;;;;;;9.75;2.25;;;19.70;70.30;;;;;;5078911;28;20044;-70
2021/05/05 06:47:40;;;;;;;8.23;3.30;;;19.70;70.30;;;;;;5081406;28;20065;-69
2021/05/05 06:50:08;;;;;;;10.82;2.75;;;19.80;70.40;;;;;;5081211;28;20088;-70
2021/05/05 06:52:35;;;;;;;9.65;2.33;;;19.70;70.40;;;;;;5077866;28;20023;-69
2021/05/05 06:55:02;;;;;;;6.43;2.60;;;19.80;70.30;;;;;;5081297;28;20020;-69
2021/05/05 06:57:29;;;;;;;13.63;4.00;;;19.80;70.30;;;;;;5081951;28;20051;-70
2021/05/05 06:59:55;;;;;;;9.57;3.35;;;19.80;70.30;;;;;;5078118;28;20119;-69
2021/05/05 07:02:22;;;;;;;10.93;4.25;;;19.80;70.30;;;;;;5083318;28;20016;-69
2021/05/05 07:04:49;;;;;;;11.60;2.70;;;19.80;70.30;;;;;;5079642;28;20043;-69
2021/05/05 07:07:16;;;;;;;7.35;3.58;;;19.80;70.20;;;;;;5081368;28;20146;-68
2021/05/05 07:09:43;;;;;;;10.63;2.88;;;19.80;70.20;;;;;;5080313;28;20024;-68
2021/05/05 07:12:09;;;;;;;9.82;2.55;;;19.80;70.20;;;;;;5080649;28;20433;-68
2021/05/05 07:14:36;;;;;;;8.07;2.22;;;19.80;70.10;;;;;;5078310;28;20035;-68
2021/05/05 07:17:02;;;;;;;7.72;2.83;;;19.80;70.10;;;;;;5082000;28;20077;-68
2021/05/05 07:19:29;;;;;;;11.40;2.90;;;19.80;70.10;;;;;;5079059;28;20119;-68
2021/05/05 07:21:55;;;;;;;11.25;3.28;;;19.80;70.20;;;;;;5077571;28;20028;-69
2021/05/05 07:24:22;;;;;;;8.25;2.67;;;19.80;70.20;;;;;;5080617;28;20032;-69
2021/05/05 07:26:48;;;;;;;11.00;2.78;;;19.80;70.10;;;;;;5080144;28;20580;-70
2021/05/05 07:29:15;;;;;;;13.85;4.72;;;19.90;70.10;;;;;;5080349;28;20024;-69
2021/05/05 07:31:41;;;;;;;9.73;2.83;;;19.90;70.10;;;;;;5077674;28;20433;-69
2021/05/05 07:34:10;;;;;;;9.02;3.33;;;19.80;70.10;;;;;;5080431;28;20468;-69
2021/05/05 07:36:36;;;;;;;10.30;4.30;;;19.80;70.10;;;;;;5079744;28;20434;-69
2021/05/05 07:47:02;;;;;;;12.63;4.57;;;19.90;70.30;;;;;;5082992;28;20057;-69
2021/05/05 07:49:31;;;;;;;12.52;4.43;;;19.90;70.40;;;;;;5082057;28;20474;-68
2021/05/05 07:51:58;;;;;;;13.02;4.35;;;19.90;70.40;;;;;;5079183;28;20000;-68
2021/05/05 07:54:24;;;;;;;11.05;5.00;;;19.90;70.40;;;;;;5080915;28;20382;-67
2021/05/05 07:56:51;;;;;;;14.30;4.55;;;19.90;70.50;;;;;;5077392;28;20021;-68
2021/05/05 07:59:17;;;;;;;17.98;6.20;;;19.90;70.50;;;;;;5080135;28;20123;-68
2021/05/05 08:01:44;;;;;;;10.88;4.57;;;19.90;70.50;;;;;;5081781;28;20107;-67
2021/05/05 08:04:10;;;;;;;13.10;5.35;;;19.90;70.50;;;;;;5077160;28;20035;-67
2021/05/05 08:06:37;;;;;;;12.85;5.85;;;19.90;70.60;;;;;;5081447;28;20031;-68
2021/05/05 08:09:04;;;;;;;13.52;5.50;;;20.00;70.60;;;;;;5080786;28;20111;-68
2021/05/05 08:11:31;;;;;;;15.32;6.18;;;20.00;70.70;;;;;;5082357;28;20070;-68
2021/05/05 08:13:57;;;;;;;12.43;6.55;;;20.00;70.70;;;;;;5079978;28;20059;-70
2021/05/05 08:16:24;;;;;;;12.93;7.22;;;20.00;70.70;;;;;;5078386;28;20028;-69
2021/05/05 08:18:50;;;;;;;15.20;7.05;;;20.00;70.60;;;;;;5081548;28;20016;-69
2021/05/05 08:21:17;;;;;;;14.05;8.80;;;20.00;70.70;;;;;;5083942;28;20040;-69
2021/05/05 08:23:44;;;;;;;14.27;6.60;;;20.00;70.60;;;;;;5079333;28;20020;-68
2021/05/05 08:26:10;;;;;;;18.20;9.68;;;20.10;70.50;;;;;;5084463;28;20020;-69
2021/05/05 08:28:37;;;;;;;11.48;6.15;;;20.10;70.50;;;;;;5083074;28;20019;-69
2021/05/05 08:31:04;;;;;;;13.73;5.72;;;20.10;70.40;;;;;;5079921;28;20084;-69
2021/05/05 08:33:31;;;;;;;13.15;6.25;;;20.10;70.40;;;;;;5081473;28;20582;-69
2021/05/05 08:35:58;;;;;;;19.23;6.78;;;20.10;70.30;;;;;;5081371;28;20526;-69
2021/05/05 08:38:25;;;;;;;23.02;7.03;;;20.10;70.20;;;;;;5080795;28;20864;-69
2021/05/05 08:40:51;;;;;;;17.10;8.13;;;20.10;70.10;;;;;;5081753;28;20036;-69
2021/05/05 08:43:18;;;;;;;15.85;6.90;;;20.10;70.10;;;;;;5079517;28;20520;-69
2021/05/05 08:45:47;;;;;;;11.82;6.70;;;20.10;70.00;;;;;;5080946;28;20369;-70
2021/05/05 08:48:13;;;;;;;21.52;8.50;;;20.10;70.00;;;;;;5084588;28;20042;-69
2021/05/05 08:50:41;;;;;;;15.25;8.10;;;20.10;70.00;;;;;;5085061;28;20077;-69
2021/05/05 08:53:08;;;;;;;16.63;7.30;;;20.10;70.00;;;;;;5084300;28;20131;-69
2021/05/05 08:55:36;;;;;;;14.98;7.10;;;20.10;70.00;;;;;;5083556;28;20102;-70
2021/05/05 08:58:03;;;;;;;18.50;7.25;;;20.10;70.00;;;;;;5083568;28;20071;-69
2021/05/05 09:00:35;;;;;;;14.63;7.47;;;20.10;70.00;;;;;;5084201;28;20059;-70
2021/05/05 09:03:07;;;;;;;13.73;6.03;;;20.10;70.00;;;;;;5078194;28;20370;-69
2021/05/05 09:05:50;;;;;;;12.15;6.47;;;20.10;69.90;;;;;;5080934;28;20107;-69
2021/05/05 09:08:17;;;;;;;13.15;5.95;;;20.10;69.80;;;;;;5085278;28;20020;-69
2021/05/05 09:10:55;;;;;;;15.27;6.93;;;20.20;69.90;;;;;;5082066;28;20406;-69
2021/05/05 09:13:50;;;;;;;17.35;8.18;;;20.20;69.80;;;;;;5081689;28;20482;-69
2021/05/05 09:16:31;;;;;;;13.97;6.33;;;20.20;69.70;;;;;;5079762;28;20542;-69
2021/05/05 09:19:04;;;;;;;14.30;6.32;;;20.20;69.70;;;;;;5082716;28;20017;-69
2021/05/05 09:21:41;;;;;;;13.88;5.85;;;20.20;69.60;;;;;;5079581;28;20043;-69
2021/05/05 09:24:23;;;;;;;11.13;5.65;;;20.20;69.50;;;;;;5082288;28;20103;-68
2021/05/05 09:26:54;;;;;;;12.05;5.95;;;20.20;69.50;;;;;;5085168;28;20020;-70
2021/05/05 09:29:36;;;;;;;11.32;6.57;;;20.20;69.50;;;;;;5086419;28;20016;-69
2021/05/05 09:32:03;;;;;;;11.15;6.20;;;20.20;69.40;;;;;;5080344;28;20368;-69
2021/05/05 09:34:29;;;;;;;13.25;7.15;;;20.20;69.40;;;;;;5079941;28;20020;-69
2021/05/05 09:37:00;;;;;;;11.88;6.10;;;20.20;69.30;;;;;;5079278;28;20111;-70
2021/05/05 09:39:32;;;;;;;14.57;6.25;;;20.20;69.30;;;;;;5081865;28;20106;-70
2021/05/05 09:42:00;;;;;;;10.85;6.40;;;20.20;69.20;;;;;;5083351;28;20375;-70
2021/05/05 09:44:27;;;;;;;12.77;5.72;;;20.20;69.20;;;;;;5078214;28;20012;-70
2021/05/05 09:46:57;;;;;;;16.65;6.90;;;20.20;69.20;;;;;;5082034;28;20467;-70
2021/05/05 09:49:41;;;;;;;11.98;6.80;;;20.30;69.20;;;;;;5079543;28;20025;-70
2021/05/05 09:52:12;;;;;;;16.55;6.60;;;20.30;69.10;;;;;;5081230;28;20067;-70
2021/05/05 09:54:41;;;;;;;20.65;8.18;;;20.30;69.10;;;;;;5084767;28;20437;-69
2021/05/05 09:57:31;;;;;;;14.05;7.90;;;20.30;69.10;;;;;;5081527;28;20040;-70
2021/05/05 10:00:08;;;;;;;15.95;7.07;;;20.30;69.10;;;;;;5069620;28;20036;-70
2021/05/05 10:02:44;;;;;;;12.68;6.40;;;20.30;69.00;;;;;;5079303;28;20108;-70
2021/05/05 10:05:15;;;;;;;13.57;6.80;;;20.30;69.00;;;;;;5078978;28;20074;-69
2021/05/05 10:07:59;;;;;;;18.45;7.45;;;20.30;69.00;;;;;;5082097;28;20052;-70
2021/05/05 10:10:28;;;;;;;16.05;7.88;;;20.30;69.00;;;;;;5082733;28;20016;-69
2021/05/05 10:13:00;;;;;;;10.73;6.78;;;20.30;69.00;;;;;;5083274;28;20032;-69
2021/05/05 10:15:30;;;;;;;19.63;8.43;;;20.40;69.00;;;;;;5084293;28;20020;-69
2021/05/05 10:17:57;;;;;;;17.95;7.25;;;20.40;68.90;;;;;;5079120;28;20549;-68
2021/05/05 10:20:28;;;;;;;10.23;6.85;;;20.40;68.80;;;;;;5079619;28;20086;-68
2021/05/05 10:22:58;;;;;;;18.17;7.25;;;20.40;68.70;;;;;;5080107;28;20425;-69
2021/05/05 10:25:26;;;;;;;11.57;5.70;;;20.40;68.60;;;;;;5081169;28;20524;-69
2021/05/05 10:27:53;;;;;;;19.55;7.32;;;20.40;68.50;;;;;;5079610;28;20036;-69
2021/05/05 10:30:25;;;;;;;10.52;5.93;;;20.40;68.50;;;;;;5078332;28;20095;-69
2021/05/05 10:32:53;;;;;;;16.02;5.60;;;20.40;68.30;;;;;;5078197;28;20426;-69
2021/05/05 10:35:22;;;;;;;11.95;5.30;;;20.40;68.30;;;;;;5083204;28;20020;-69
2021/05/05 10:37:59;;;;;;;14.32;5.63;;;20.50;68.10;;;;;;5077633;28;20111;-69
2021/05/05 10:40:34;;;;;;;12.88;5.25;;;20.50;68.10;;;;;;5079013;28;20039;-69
2021/05/05 10:43:10;;;;;;;7.43;4.03;;;20.50;68.00;;;;;;5080951;28;20035;-70
2021/05/05 10:45:43;;;;;;;8.13;4.90;;;20.60;67.90;;;;;;5077640;28;20040;-68
2021/05/05 10:48:17;;;;;;;14.63;5.55;;;20.50;67.80;;;;;;5079019;28;20031;-69
2021/05/05 10:50:59;;;;;;;15.40;5.93;;;20.60;67.80;;;;;;5077488;28;20085;-69
2021/05/05 10:53:39;;;;;;;13.45;5.55;;;20.50;67.60;;;;;;5081010;28;20490;-69
2021/05/05 10:56:22;;;;;;;10.27;4.70;;;20.60;67.70;;;;;;5078988;28;20401;-69
2021/05/05 10:59:06;;;;;;;9.63;5.32;;;20.60;67.60;;;;;;5081432;28;20024;-69
2021/05/05 11:01:45;;;;;;;8.57;5.68;;;20.60;67.60;;;;;;5081629;28;20040;-69
2021/05/05 11:04:14;;;;;;;11.43;5.35;;;20.60;67.60;;;;;;5078003;28;20040;-69
2021/05/05 11:06:53;;;;;;;7.93;3.92;;;20.50;67.60;;;;;;5080184;28;20379;-69
2021/05/05 11:09:21;;;;;;;13.63;4.97;;;20.60;67.70;;;;;;5075426;28;20051;-69
2021/05/05 11:11:49;;;;;;;11.52;4.82;;;20.60;67.70;;;;;;5082952;28;20035;-69
2021/05/05 11:14:38;;;;;;;10.95;4.88;;;20.60;67.70;;;;;;5076495;28;20044;-69
2021/05/05 11:17:06;;;;;;;8.55;3.85;;;20.60;67.50;;;;;;5069697;28;20506;-69
2021/05/05 11:19:41;;;;;;;11.00;3.85;;;20.60;67.50;;;;;;5081508;28;20048;-69
2021/05/05 11:22:09;;;;;;;10.45;3.50;;;20.60;67.40;;;;;;5083195;28;20395;-68
2021/05/05 11:24:39;;;;;;;7.82;3.72;;;20.60;67.30;;;;;;5079232;28;20074;-69
2021/05/05 11:27:11;;;;;;;12.82;4.03;;;20.60;67.30;;;;;;5081835;28;20073;-69
2021/05/05 11:29:44;;;;;;;12.73;5.13;;;20.60;67.20;;;;;;5080529;28;20061;-69
2021/05/05 11:32:19;;;;;;;12.20;4.35;;;20.60;67.30;;;;;;5082099;28;20491;-69
2021/05/05 11:34:47;;;;;;;11.95;4.68;;;20.60;67.30;;;;;;5079024;28;20021;-69
2021/05/05 11:37:19;;;;;;;12.70;4.57;;;20.70;67.40;;;;;;5082175;28;20028;-69
2021/05/05 11:39:55;;;;;;;14.30;4.22;;;20.70;67.50;;;;;;5080763;28;20024;-69
2021/05/05 11:42:23;;;;;;;8.50;3.40;;;20.70;67.60;;;;;;5081094;28;20474;-69
2021/05/05 11:44:59;;;;;;;10.77;3.95;;;20.70;68.20;;;;;;5080835;28;20479;-68
2021/05/05 11:47:26;;;;;;;7.70;2.85;;;20.70;67.50;;;;;;5078294;28;20028;-70
2021/05/05 11:49:57;;;;;;;9.48;3.92;;;20.80;67.60;;;;;;5078949;28;20037;-69
2021/05/05 11:52:26;;;;;;;8.45;3.53;;;20.80;67.50;;;;;;5082007;28;20376;-68
2021/05/05 11:54:59;;;;;;;13.38;5.32;;;20.80;67.40;;;;;;5079441;28;20171;-69
2021/05/05 11:57:40;;;;;;;8.63;2.53;;;20.80;67.40;;;;;;5076236;28;20024;-68
2021/05/05 12:00:18;;;;;;;12.38;3.53;;;20.90;67.50;;;;;;5075657;28;20089;-69
2021/05/05 12:02:49;;;;;;;10.93;2.78;;;20.90;67.60;;;;;;5076881;28;20021;-69
2021/05/05 12:05:29;;;;;;;6.25;2.60;;;20.90;67.60;;;;;;5077651;28;20009;-67
2021/05/05 12:08:14;;;;;;;6.53;3.05;;;20.90;67.70;;;;;;5075662;28;20104;-68
2021/05/05 12:10:45;;;;;;;5.15;2.63;;;20.90;67.70;;;;;;5080934;28;20031;-68
2021/05/05 12:13:17;;;;;;;8.55;2.75;;;20.90;67.80;;;;;;5078849;28;20032;-67
2021/05/05 12:15:54;;;;;;;7.47;2.97;;;21.00;67.90;;;;;;5077615;28;20020;-68
2021/05/05 12:18:34;;;;;;;10.57;3.30;;;20.90;68.00;;;;;;5080264;28;20387;-68
2021/05/05 12:21:07;;;;;;;12.70;3.30;;;20.90;68.20;;;;;;5080337;28;20051;-68
2021/05/05 12:23:48;;;;;;;8.93;3.40;;;21.00;68.40;;;;;;5078487;28;20025;-68
2021/05/05 12:26:28;;;;;;;9.50;3.80;;;21.00;68.60;;;;;;5076399;28;20486;-67
2021/05/05 12:29:06;;;;;;;6.95;3.00;;;20.90;68.70;;;;;;5077605;28;20028;-68
2021/05/05 12:31:37;;;;;;;9.40;2.85;;;20.90;68.80;;;;;;5080092;28;20055;-68
2021/05/05 12:34:08;;;;;;;5.97;3.33;;;20.90;68.90;;;;;;5078870;28;20142;-67
2021/05/05 12:36:38;;;;;;;7.90;3.65;;;20.90;69.00;;;;;;5075855;28;20033;-67
2021/05/05 12:39:23;;;;;;;9.82;3.60;;;20.90;69.10;;;;;;5063855;28;20020;-67
2021/05/05 12:41:52;;;;;;;9.38;3.25;;;20.90;69.20;;;;;;5080006;28;20135;-67
2021/05/05 12:44:21;;;;;;;12.02;3.78;;;20.90;69.30;;;;;;5083513;28;20025;-67
2021/05/05 12:46:55;;;;;;;6.10;2.67;;;20.90;69.40;;;;;;5080483;28;20035;-67
2021/05/05 12:49:29;;;;;;;10.75;3.53;;;20.90;69.50;;;;;;5079154;28;20346;-69
2021/05/05 12:51:56;;;;;;;7.97;3.28;;;20.90;69.60;;;;;;5075910;28;20028;-68
2021/05/05 12:54:26;;;;;;;13.63;3.67;;;20.90;69.80;;;;;;5081946;28;20583;-69
2021/05/05 12:56:54;;;;;;;9.20;3.42;;;20.90;70.00;;;;;;5077513;28;21881;-68